sensor_id;sensor_type;location;lat;lon;timestamp;P1;durP1;ratioP1;P2;durP2;ratioP2
56481;SDS011;42384;45.186;19.958;2024-03-23T00:53:37;15.25;;;10.70;;
56481;SDS011;42384;45.186;19.958;2024-03-23T00:56:03;13.98;;;9.80;;
56481;SDS011;42384;45.186;19.958;2024-03-23T00:58:30;14.18;;;10.45;;
56481;SDS011;42384;45.186;19.958;2024-03-23T01:00:56;14.52;;;10.52;;
56481;SDS011;42384;45.186;19.958;2024-03-23T01:03:22;15.73;;;10.55;;
56481;SDS011;42384;45.186;19.958;2024-03-23T01:05:49;18.73;;;9.93;;
56481;SDS011;42384;45.186;19.958;2024-03-23T01:08:15;15.77;;;10.68;;
56481;SDS011;42384;45.186;19.958;2024-03-23T01:10:41;13.65;;;9.68;;
56481;SDS011;42384;45.186;19.958;2024-03-23T01:13:07;15.30;;;10.60;;
56481;SDS011;42384;45.186;19.958;2024-03-23T01:15:34;14.85;;;10.73;;
56481;SDS011;42384;45.186;19.958;2024-03-23T01:18:00;17.30;;;11.10;;
56481;SDS011;42384;45.186;19.958;2024-03-23T01:20:26;16.23;;;11.00;;
56481;SDS011;42384;45.186;19.958;2024-03-23T01:22:53;19.33;;;10.77;;
56481;SDS011;42384;45.186;19.958;2024-03-23T01:25:19;15.50;;;10.38;;
56481;SDS011;42384;45.186;19.958;2024-03-23T01:27:45;16.50;;;11.27;;
56481;SDS011;42384;45.186;19.958;2024-03-23T01:30:11;17.13;;;12.23;;
56481;SDS011;42384;45.186;19.958;2024-03-23T01:32:39;18.10;;;11.27;;
56481;SDS011;42384;45.186;19.958;2024-03-23T01:35:05;17.17;;;11.33;;
56481;SDS011;42384;45.186;19.958;2024-03-23T01:37:31;17.30;;;11.52;;
56481;SDS011;42384;45.186;19.958;2024-03-23T01:39:57;15.90;;;10.47;;
56481;SDS011;42384;45.186;19.958;2024-03-23T01:42:24;18.47;;;11.23;;
56481;SDS011;42384;45.186;19.958;2024-03-23T01:44:50;16.90;;;11.10;;
56481;SDS011;42384;45.186;19.958;2024-03-23T01:47:17;17.27;;;10.93;;
56481;SDS011;42384;45.186;19.958;2024-03-23T01:49:43;18.65;;;11.20;;
56481;SDS011;42384;45.186;19.958;2024-03-23T01:52:09;22.50;;;13.20;;
56481;SDS011;42384;45.186;19.958;2024-03-23T01:54:35;23.63;;;13.38;;
56481;SDS011;42384;45.186;19.958;2024-03-23T01:57:02;19.50;;;10.52;;
56481;SDS011;42384;45.186;19.958;2024-03-23T01:59:28;17.23;;;11.35;;
56481;SDS011;42384;45.186;19.958;2024-03-23T02:01:54;20.75;;;11.27;;
56481;SDS011;42384;45.186;19.958;2024-03-23T02:04:21;22.23;;;10.30;;
56481;SDS011;42384;45.186;19.958;2024-03-23T02:06:47;18.73;;;10.38;;
56481;SDS011;42384;45.186;19.958;2024-03-23T02:09:14;21.65;;;11.15;;
56481;SDS011;42384;45.186;19.958;2024-03-23T02:11:40;18.23;;;10.77;;
56481;SDS011;42384;45.186;19.958;2024-03-23T02:14:07;18.52;;;10.75;;
56481;SDS011;42384;45.186;19.958;2024-03-23T02:16:33;18.27;;;11.13;;
56481;SDS011;42384;45.186;19.958;2024-03-23T02:18:59;18.85;;;11.00;;
56481;SDS011;42384;45.186;19.958;2024-03-23T02:21:25;20.93;;;10.37;;
56481;SDS011;42384;45.186;19.958;2024-03-23T02:26:18;18.05;;;10.43;;
56481;SDS011;42384;45.186;19.958;2024-03-23T02:28:45;19.05;;;10.80;;
56481;SDS011;42384;45.186;19.958;2024-03-23T02:31:11;18.98;;;10.88;;
56481;SDS011;42384;45.186;19.958;2024-03-23T02:33:37;18.30;;;10.75;;
56481;SDS011;42384;45.186;19.958;2024-03-23T02:36:04;15.82;;;9.75;;
56481;SDS011;42384;45.186;19.958;2024-03-23T02:38:30;17.33;;;9.63;;
56481;SDS011;42384;45.186;19.958;2024-03-23T02:41:00;18.70;;;9.68;;
56481;SDS011;42384;45.186;19.958;2024-03-23T02:43:27;22.13;;;11.13;;
56481;SDS011;42384;45.186;19.958;2024-03-23T02:45:53;21.43;;;10.40;;
56481;SDS011;42384;45.186;19.958;2024-03-23T02:48:19;21.00;;;10.40;;
56481;SDS011;42384;45.186;19.958;2024-03-23T02:50:45;20.70;;;10.80;;
56481;SDS011;42384;45.186;19.958;2024-03-23T02:53:12;22.27;;;10.80;;
56481;SDS011;42384;45.186;19.958;2024-03-23T02:55:38;21.87;;;10.40;;
56481;SDS011;42384;45.186;19.958;2024-03-23T02:58:04;17.73;;;11.13;;
56481;SDS011;42384;45.186;19.958;2024-03-23T03:00:30;20.93;;;11.93;;
56481;SDS011;42384;45.186;19.958;2024-03-23T03:02:56;22.63;;;12.32;;
56481;SDS011;42384;45.186;19.958;2024-03-23T03:05:23;19.80;;;11.73;;
56481;SDS011;42384;45.186;19.958;2024-03-23T03:07:50;24.90;;;11.45;;
56481;SDS011;42384;45.186;19.958;2024-03-23T03:10:16;22.27;;;11.27;;
56481;SDS011;42384;45.186;19.958;2024-03-23T03:12:42;23.87;;;12.50;;
56481;SDS011;42384;45.186;19.958;2024-03-23T03:15:08;21.52;;;12.10;;
56481;SDS011;42384;45.186;19.958;2024-03-23T03:17:35;22.73;;;12.95;;
56481;SDS011;42384;45.186;19.958;2024-03-23T03:20:01;23.13;;;12.68;;
56481;SDS011;42384;45.186;19.958;2024-03-23T03:22:29;23.60;;;11.60;;
56481;SDS011;42384;45.186;19.958;2024-03-23T03:24:56;20.37;;;12.60;;
56481;SDS011;42384;45.186;19.958;2024-03-23T03:27:22;24.20;;;11.93;;
56481;SDS011;42384;45.186;19.958;2024-03-23T03:29:49;20.02;;;12.13;;
56481;SDS011;42384;45.186;19.958;2024-03-23T03:32:15;30.05;;;13.75;;
56481;SDS011;42384;45.186;19.958;2024-03-23T03:34:41;26.65;;;12.15;;
56481;SDS011;42384;45.186;19.958;2024-03-23T03:37:07;23.67;;;13.25;;
56481;SDS011;42384;45.186;19.958;2024-03-23T03:39:34;24.50;;;12.23;;
56481;SDS011;42384;45.186;19.958;2024-03-23T03:42:00;24.37;;;13.07;;
56481;SDS011;42384;45.186;19.958;2024-03-23T03:44:27;25.85;;;12.05;;
56481;SDS011;42384;45.186;19.958;2024-03-23T03:46:53;24.80;;;13.38;;
56481;SDS011;42384;45.186;19.958;2024-03-23T03:49:19;23.83;;;12.63;;
56481;SDS011;42384;45.186;19.958;2024-03-23T03:51:45;25.55;;;12.25;;
56481;SDS011;42384;45.186;19.958;2024-03-23T03:54:12;20.20;;;11.30;;
56481;SDS011;42384;45.186;19.958;2024-03-23T03:56:38;24.20;;;11.97;;
56481;SDS011;42384;45.186;19.958;2024-03-23T03:59:04;28.10;;;12.53;;
56481;SDS011;42384;45.186;19.958;2024-03-23T04:01:31;25.63;;;11.77;;
56481;SDS011;42384;45.186;19.958;2024-03-23T04:03:57;25.13;;;12.70;;
56481;SDS011;42384;45.186;19.958;2024-03-23T04:06:23;22.97;;;11.83;;
56481;SDS011;42384;45.186;19.958;2024-03-23T04:08:49;17.05;;;11.38;;
56481;SDS011;42384;45.186;19.958;2024-03-23T04:11:16;24.27;;;11.73;;
56481;SDS011;42384;45.186;19.958;2024-03-23T04:13:43;24.17;;;11.75;;
56481;SDS011;42384;45.186;19.958;2024-03-23T04:16:09;25.33;;;11.52;;
56481;SDS011;42384;45.186;19.958;2024-03-23T04:18:35;26.03;;;12.63;;
56481;SDS011;42384;45.186;19.958;2024-03-23T04:21:02;22.35;;;11.05;;
56481;SDS011;42384;45.186;19.958;2024-03-23T04:23:28;23.05;;;12.23;;
56481;SDS011;42384;45.186;19.958;2024-03-23T04:25:54;22.60;;;11.45;;
56481;SDS011;42384;45.186;19.958;2024-03-23T04:28:20;22.05;;;12.18;;
56481;SDS011;42384;45.186;19.958;2024-03-23T04:30:47;22.67;;;11.73;;
56481;SDS011;42384;45.186;19.958;2024-03-23T04:33:14;23.17;;;11.15;;
56481;SDS011;42384;45.186;19.958;2024-03-23T04:35:40;20.17;;;10.35;;
56481;SDS011;42384;45.186;19.958;2024-03-23T04:38:06;24.97;;;10.43;;
56481;SDS011;42384;45.186;19.958;2024-03-23T04:40:32;18.87;;;10.10;;
56481;SDS011;42384;45.186;19.958;2024-03-23T04:42:59;20.50;;;11.20;;
56481;SDS011;42384;45.186;19.958;2024-03-23T04:45:26;24.45;;;11.73;;
56481;SDS011;42384;45.186;19.958;2024-03-23T04:47:52;23.20;;;11.53;;
56481;SDS011;42384;45.186;19.958;2024-03-23T04:50:19;24.77;;;12.32;;
56481;SDS011;42384;45.186;19.958;2024-03-23T04:52:45;20.17;;;10.83;;
56481;SDS011;42384;45.186;19.958;2024-03-23T04:55:11;23.70;;;10.73;;
56481;SDS011;42384;45.186;19.958;2024-03-23T04:57:39;23.30;;;12.10;;
56481;SDS011;42384;45.186;19.958;2024-03-23T05:00:06;24.15;;;11.13;;
56481;SDS011;42384;45.186;19.958;2024-03-23T05:02:42;26.10;;;11.60;;
56481;SDS011;42384;45.186;19.958;2024-03-23T05:05:08;24.90;;;11.23;;
56481;SDS011;42384;45.186;19.958;2024-03-23T05:07:35;21.15;;;10.60;;
56481;SDS011;42384;45.186;19.958;2024-03-23T05:10:01;22.73;;;11.77;;
56481;SDS011;42384;45.186;19.958;2024-03-23T05:14:54;19.95;;;10.70;;
56481;SDS011;42384;45.186;19.958;2024-03-23T05:17:20;25.33;;;11.32;;
56481;SDS011;42384;45.186;19.958;2024-03-23T05:19:47;23.20;;;11.05;;
56481;SDS011;42384;45.186;19.958;2024-03-23T05:22:13;21.15;;;10.73;;
56481;SDS011;42384;45.186;19.958;2024-03-23T05:24:39;22.98;;;12.45;;
56481;SDS011;42384;45.186;19.958;2024-03-23T05:27:05;27.13;;;11.73;;
56481;SDS011;42384;45.186;19.958;2024-03-23T05:29:32;24.02;;;11.50;;
56481;SDS011;42384;45.186;19.958;2024-03-23T05:31:58;25.40;;;12.60;;
56481;SDS011;42384;45.186;19.958;2024-03-23T05:34:24;24.88;;;12.40;;
56481;SDS011;42384;45.186;19.958;2024-03-23T05:36:50;23.55;;;11.95;;
56481;SDS011;42384;45.186;19.958;2024-03-23T05:39:17;20.38;;;11.18;;
56481;SDS011;42384;45.186;19.958;2024-03-23T05:41:43;25.80;;;12.82;;
56481;SDS011;42384;45.186;19.958;2024-03-23T05:44:10;26.88;;;13.20;;
56481;SDS011;42384;45.186;19.958;2024-03-23T05:46:36;26.92;;;11.98;;
56481;SDS011;42384;45.186;19.958;2024-03-23T05:51:29;25.83;;;13.07;;
56481;SDS011;42384;45.186;19.958;2024-03-23T05:53:55;27.10;;;13.02;;
56481;SDS011;42384;45.186;19.958;2024-03-23T05:56:22;24.92;;;13.07;;
56481;SDS011;42384;45.186;19.958;2024-03-23T05:58:48;25.88;;;12.95;;
56481;SDS011;42384;45.186;19.958;2024-03-23T06:01:14;25.45;;;13.57;;
56481;SDS011;42384;45.186;19.958;2024-03-23T06:03:40;24.63;;;13.20;;
56481;SDS011;42384;45.186;19.958;2024-03-23T06:06:09;24.85;;;13.45;;
56481;SDS011;42384;45.186;19.958;2024-03-23T06:08:37;19.30;;;12.25;;
56481;SDS011;42384;45.186;19.958;2024-03-23T06:11:04;22.02;;;12.57;;
56481;SDS011;42384;45.186;19.958;2024-03-23T06:13:33;22.17;;;13.25;;
56481;SDS011;42384;45.186;19.958;2024-03-23T06:16:00;24.10;;;13.85;;
56481;SDS011;42384;45.186;19.958;2024-03-23T06:20:53;20.70;;;13.10;;
56481;SDS011;42384;45.186;19.958;2024-03-23T06:23:20;23.83;;;12.60;;
56481;SDS011;42384;45.186;19.958;2024-03-23T06:25:46;26.48;;;12.98;;
56481;SDS011;42384;45.186;19.958;2024-03-23T06:28:12;26.58;;;12.82;;
56481;SDS011;42384;45.186;19.958;2024-03-23T06:30:39;16.73;;;11.50;;
56481;SDS011;42384;45.186;19.958;2024-03-23T06:33:05;19.83;;;11.93;;
56481;SDS011;42384;45.186;19.958;2024-03-23T06:35:31;23.35;;;13.18;;
56481;SDS011;42384;45.186;19.958;2024-03-23T06:37:57;19.90;;;12.55;;
56481;SDS011;42384;45.186;19.958;2024-03-23T06:40:24;20.33;;;12.82;;
56481;SDS011;42384;45.186;19.958;2024-03-23T06:42:50;24.35;;;12.82;;
56481;SDS011;42384;45.186;19.958;2024-03-23T06:45:16;19.52;;;12.55;;
56481;SDS011;42384;45.186;19.958;2024-03-23T06:47:48;18.70;;;12.18;;
56481;SDS011;42384;45.186;19.958;2024-03-23T06:50:15;18.83;;;12.68;;
56481;SDS011;42384;45.186;19.958;2024-03-23T06:52:41;22.08;;;13.25;;
56481;SDS011;42384;45.186;19.958;2024-03-23T06:55:07;19.23;;;12.30;;
56481;SDS011;42384;45.186;19.958;2024-03-23T06:57:34;18.27;;;12.05;;
56481;SDS011;42384;45.186;19.958;2024-03-23T07:00:00;19.73;;;12.82;;
56481;SDS011;42384;45.186;19.958;2024-03-23T07:02:27;20.77;;;14.18;;
56481;SDS011;42384;45.186;19.958;2024-03-23T07:04:53;16.73;;;11.15;;
56481;SDS011;42384;45.186;19.958;2024-03-23T07:07:19;20.92;;;13.10;;
56481;SDS011;42384;45.186;19.958;2024-03-23T07:09:45;21.80;;;13.30;;
56481;SDS011;42384;45.186;19.958;2024-03-23T07:12:12;18.00;;;11.85;;
56481;SDS011;42384;45.186;19.958;2024-03-23T07:14:38;19.73;;;11.80;;
56481;SDS011;42384;45.186;19.958;2024-03-23T07:17:04;21.30;;;12.30;;
56481;SDS011;42384;45.186;19.958;2024-03-23T07:19:30;18.92;;;12.63;;
56481;SDS011;42384;45.186;19.958;2024-03-23T07:21:57;19.02;;;10.65;;
56481;SDS011;42384;45.186;19.958;2024-03-23T07:24:23;17.10;;;11.20;;
56481;SDS011;42384;45.186;19.958;2024-03-23T07:26:50;18.08;;;10.57;;
56481;SDS011;42384;45.186;19.958;2024-03-23T07:29:16;15.25;;;10.32;;
56481;SDS011;42384;45.186;19.958;2024-03-23T07:31:42;21.13;;;10.05;;
56481;SDS011;42384;45.186;19.958;2024-03-23T07:34:09;17.70;;;10.65;;
56481;SDS011;42384;45.186;19.958;2024-03-23T07:36:35;16.02;;;10.13;;
56481;SDS011;42384;45.186;19.958;2024-03-23T07:39:01;17.23;;;9.73;;
56481;SDS011;42384;45.186;19.958;2024-03-23T07:41:29;16.05;;;9.43;;
56481;SDS011;42384;45.186;19.958;2024-03-23T07:43:55;18.27;;;10.05;;
56481;SDS011;42384;45.186;19.958;2024-03-23T07:46:22;17.35;;;10.35;;
56481;SDS011;42384;45.186;19.958;2024-03-23T07:48:50;17.65;;;9.00;;
56481;SDS011;42384;45.186;19.958;2024-03-23T07:51:17;19.23;;;9.52;;
56481;SDS011;42384;45.186;19.958;2024-03-23T07:53:44;17.00;;;10.32;;
56481;SDS011;42384;45.186;19.958;2024-03-23T07:56:18;19.27;;;10.52;;
56481;SDS011;42384;45.186;19.958;2024-03-23T07:58:45;15.68;;;9.52;;
56481;SDS011;42384;45.186;19.958;2024-03-23T08:01:12;18.17;;;10.23;;
56481;SDS011;42384;45.186;19.958;2024-03-23T08:03:40;16.90;;;10.00;;
56481;SDS011;42384;45.186;19.958;2024-03-23T08:06:10;14.30;;;9.43;;
56481;SDS011;42384;45.186;19.958;2024-03-23T08:08:36;21.20;;;10.68;;
56481;SDS011;42384;45.186;19.958;2024-03-23T08:11:03;22.02;;;10.52;;
56481;SDS011;42384;45.186;19.958;2024-03-23T08:13:29;16.77;;;9.65;;
56481;SDS011;42384;45.186;19.958;2024-03-23T08:15:56;18.40;;;9.80;;
56481;SDS011;42384;45.186;19.958;2024-03-23T08:21:09;15.05;;;9.70;;
56481;SDS011;42384;45.186;19.958;2024-03-23T08:23:35;16.95;;;10.43;;
56481;SDS011;42384;45.186;19.958;2024-03-23T08:26:11;14.45;;;9.38;;
56481;SDS011;42384;45.186;19.958;2024-03-23T08:28:38;14.85;;;9.38;;
56481;SDS011;42384;45.186;19.958;2024-03-23T08:31:06;14.30;;;9.63;;
56481;SDS011;42384;45.186;19.958;2024-03-23T08:33:33;16.10;;;10.02;;
56481;SDS011;42384;45.186;19.958;2024-03-23T08:36:00;12.90;;;9.75;;
56481;SDS011;42384;45.186;19.958;2024-03-23T08:38:27;14.35;;;8.82;;
56481;SDS011;42384;45.186;19.958;2024-03-23T08:41:11;17.35;;;9.38;;
56481;SDS011;42384;45.186;19.958;2024-03-23T08:43:39;16.30;;;9.07;;
56481;SDS011;42384;45.186;19.958;2024-03-23T08:46:23;16.10;;;8.90;;
56481;SDS011;42384;45.186;19.958;2024-03-23T08:48:49;14.88;;;8.93;;
56481;SDS011;42384;45.186;19.958;2024-03-23T08:51:17;16.05;;;8.82;;
56481;SDS011;42384;45.186;19.958;2024-03-23T08:53:43;15.32;;;7.78;;
56481;SDS011;42384;45.186;19.958;2024-03-23T08:56:10;14.35;;;8.07;;
56481;SDS011;42384;45.186;19.958;2024-03-23T08:58:37;14.15;;;8.57;;
56481;SDS011;42384;45.186;19.958;2024-03-23T09:01:07;13.18;;;8.40;;
56481;SDS011;42384;45.186;19.958;2024-03-23T09:03:34;17.85;;;7.70;;
56481;SDS011;42384;45.186;19.958;2024-03-23T09:06:00;13.75;;;9.40;;
56481;SDS011;42384;45.186;19.958;2024-03-23T09:08:27;10.52;;;7.43;;
56481;SDS011;42384;45.186;19.958;2024-03-23T09:10:53;13.63;;;7.20;;
56481;SDS011;42384;45.186;19.958;2024-03-23T09:13:20;13.50;;;6.63;;
56481;SDS011;42384;45.186;19.958;2024-03-23T09:15:47;13.02;;;7.75;;
56481;SDS011;42384;45.186;19.958;2024-03-23T09:18:13;18.33;;;7.88;;
56481;SDS011;42384;45.186;19.958;2024-03-23T09:20:40;16.30;;;8.10;;
56481;SDS011;42384;45.186;19.958;2024-03-23T09:23:06;13.70;;;9.23;;
56481;SDS011;42384;45.186;19.958;2024-03-23T09:25:35;13.57;;;7.85;;
56481;SDS011;42384;45.186;19.958;2024-03-23T09:28:01;15.73;;;8.98;;
56481;SDS011;42384;45.186;19.958;2024-03-23T09:30:28;14.63;;;9.20;;
56481;SDS011;42384;45.186;19.958;2024-03-23T09:32:54;16.52;;;8.93;;
56481;SDS011;42384;45.186;19.958;2024-03-23T09:35:20;16.85;;;9.98;;
56481;SDS011;42384;45.186;19.958;2024-03-23T09:37:47;14.45;;;8.30;;
56481;SDS011;42384;45.186;19.958;2024-03-23T09:40:13;13.73;;;8.52;;
56481;SDS011;42384;45.186;19.958;2024-03-23T09:42:39;13.35;;;7.90;;
56481;SDS011;42384;45.186;19.958;2024-03-23T09:45:12;15.63;;;7.30;;
56481;SDS011;42384;45.186;19.958;2024-03-23T09:47:41;16.00;;;8.07;;
56481;SDS011;42384;45.186;19.958;2024-03-23T09:50:07;12.00;;;7.50;;
56481;SDS011;42384;45.186;19.958;2024-03-23T09:52:34;11.13;;;7.22;;
56481;SDS011;42384;45.186;19.958;2024-03-23T09:55:00;10.93;;;6.70;;
56481;SDS011;42384;45.186;19.958;2024-03-23T09:57:27;12.30;;;6.65;;
56481;SDS011;42384;45.186;19.958;2024-03-23T09:59:53;7.82;;;5.13;;
56481;SDS011;42384;45.186;19.958;2024-03-23T10:02:20;10.60;;;6.35;;
56481;SDS011;42384;45.186;19.958;2024-03-23T10:04:47;8.88;;;5.63;;
56481;SDS011;42384;45.186;19.958;2024-03-23T10:07:14;9.90;;;5.95;;
56481;SDS011;42384;45.186;19.958;2024-03-23T10:09:41;10.95;;;5.97;;
56481;SDS011;42384;45.186;19.958;2024-03-23T10:12:11;13.43;;;6.43;;
56481;SDS011;42384;45.186;19.958;2024-03-23T10:14:41;13.38;;;5.40;;
56481;SDS011;42384;45.186;19.958;2024-03-23T10:17:17;11.30;;;4.50;;
56481;SDS011;42384;45.186;19.958;2024-03-23T10:19:47;12.60;;;5.03;;
56481;SDS011;42384;45.186;19.958;2024-03-23T10:22:18;14.73;;;5.45;;
56481;SDS011;42384;45.186;19.958;2024-03-23T10:24:45;9.10;;;5.65;;
56481;SDS011;42384;45.186;19.958;2024-03-23T10:27:18;7.82;;;4.90;;
56481;SDS011;42384;45.186;19.958;2024-03-23T10:29:47;10.10;;;5.13;;
56481;SDS011;42384;45.186;19.958;2024-03-23T10:32:14;7.85;;;4.78;;
56481;SDS011;42384;45.186;19.958;2024-03-23T10:37:07;7.65;;;4.65;;
56481;SDS011;42384;45.186;19.958;2024-03-23T10:42:03;9.52;;;5.35;;
56481;SDS011;42384;45.186;19.958;2024-03-23T10:44:30;13.02;;;6.72;;
56481;SDS011;42384;45.186;19.958;2024-03-23T10:46:57;9.65;;;4.47;;
56481;SDS011;42384;45.186;19.958;2024-03-23T10:49:29;7.72;;;4.40;;
56481;SDS011;42384;45.186;19.958;2024-03-23T10:52:02;6.57;;;4.20;;
56481;SDS011;42384;45.186;19.958;2024-03-23T10:54:32;6.68;;;4.15;;
56481;SDS011;42384;45.186;19.958;2024-03-23T10:57:13;8.75;;;5.13;;
56481;SDS011;42384;45.186;19.958;2024-03-23T10:59:40;10.63;;;4.97;;
56481;SDS011;42384;45.186;19.958;2024-03-23T11:04:38;7.88;;;5.00;;
56481;SDS011;42384;45.186;19.958;2024-03-23T11:12:46;9.10;;;4.78;;
56481;SDS011;42384;45.186;19.958;2024-03-23T11:14:54;7.72;;;4.22;;
56481;SDS011;42384;45.186;19.958;2024-03-23T11:17:21;8.18;;;4.28;;
56481;SDS011;42384;45.186;19.958;2024-03-23T11:20:05;5.93;;;4.60;;
56481;SDS011;42384;45.186;19.958;2024-03-23T11:25:12;6.82;;;4.10;;
56481;SDS011;42384;45.186;19.958;2024-03-23T11:27:38;10.70;;;4.57;;
56481;SDS011;42384;45.186;19.958;2024-03-23T11:30:38;7.30;;;4.22;;
56481;SDS011;42384;45.186;19.958;2024-03-23T11:32:57;6.63;;;3.67;;
56481;SDS011;42384;45.186;19.958;2024-03-23T11:38:02;6.03;;;3.20;;
56481;SDS011;42384;45.186;19.958;2024-03-23T11:40:28;7.50;;;3.90;;
56481;SDS011;42384;45.186;19.958;2024-03-23T11:42:59;11.98;;;4.63;;
56481;SDS011;42384;45.186;19.958;2024-03-23T11:45:25;8.02;;;4.18;;
56481;SDS011;42384;45.186;19.958;2024-03-23T11:48:01;8.70;;;4.18;;
56481;SDS011;42384;45.186;19.958;2024-03-23T11:50:28;5.65;;;3.55;;
56481;SDS011;42384;45.186;19.958;2024-03-23T11:53:06;6.40;;;3.08;;
56481;SDS011;42384;45.186;19.958;2024-03-23T11:55:45;7.18;;;3.45;;
56481;SDS011;42384;45.186;19.958;2024-03-23T11:58:11;9.77;;;3.97;;
56481;SDS011;42384;45.186;19.958;2024-03-23T12:00:37;9.98;;;6.47;;
56481;SDS011;42384;45.186;19.958;2024-03-23T12:03:04;7.78;;;3.75;;
56481;SDS011;42384;45.186;19.958;2024-03-23T12:05:31;9.32;;;4.22;;
56481;SDS011;42384;45.186;19.958;2024-03-23T12:10:50;10.02;;;3.95;;
56481;SDS011;42384;45.186;19.958;2024-03-23T12:13:19;10.93;;;3.90;;
56481;SDS011;42384;45.186;19.958;2024-03-23T12:15:46;6.38;;;3.70;;
56481;SDS011;42384;45.186;19.958;2024-03-23T12:18:13;6.03;;;4.20;;
56481;SDS011;42384;45.186;19.958;2024-03-23T12:20:39;7.30;;;4.53;;
56481;SDS011;42384;45.186;19.958;2024-03-23T12:23:08;5.47;;;4.50;;
56481;SDS011;42384;45.186;19.958;2024-03-23T12:25:35;5.75;;;3.78;;
56481;SDS011;42384;45.186;19.958;2024-03-23T12:28:02;8.77;;;4.40;;
56481;SDS011;42384;45.186;19.958;2024-03-23T12:30:31;7.90;;;5.03;;
56481;SDS011;42384;45.186;19.958;2024-03-23T12:32:57;7.82;;;4.18;;
56481;SDS011;42384;45.186;19.958;2024-03-23T12:35:23;8.50;;;4.57;;
56481;SDS011;42384;45.186;19.958;2024-03-23T12:37:50;6.78;;;3.72;;
56481;SDS011;42384;45.186;19.958;2024-03-23T12:40:16;12.05;;;6.10;;
56481;SDS011;42384;45.186;19.958;2024-03-23T12:42:42;11.13;;;3.70;;
56481;SDS011;42384;45.186;19.958;2024-03-23T12:45:08;9.65;;;4.78;;
56481;SDS011;42384;45.186;19.958;2024-03-23T12:47:34;6.75;;;3.80;;
56481;SDS011;42384;45.186;19.958;2024-03-23T12:50:01;5.82;;;3.75;;
56481;SDS011;42384;45.186;19.958;2024-03-23T12:54:55;13.32;;;5.35;;
56481;SDS011;42384;45.186;19.958;2024-03-23T12:57:22;6.40;;;4.10;;
56481;SDS011;42384;45.186;19.958;2024-03-23T12:59:49;6.75;;;4.47;;
56481;SDS011;42384;45.186;19.958;2024-03-23T13:02:17;7.97;;;3.90;;
56481;SDS011;42384;45.186;19.958;2024-03-23T13:04:44;10.52;;;5.18;;
56481;SDS011;42384;45.186;19.958;2024-03-23T13:09:37;10.65;;;7.75;;
56481;SDS011;42384;45.186;19.958;2024-03-23T13:12:04;9.77;;;6.03;;
56481;SDS011;42384;45.186;19.958;2024-03-23T13:14:30;15.48;;;10.88;;
56481;SDS011;42384;45.186;19.958;2024-03-23T13:16:56;10.82;;;5.30;;
56481;SDS011;42384;45.186;19.958;2024-03-23T13:19:22;8.18;;;5.85;;
56481;SDS011;42384;45.186;19.958;2024-03-23T13:21:55;8.38;;;4.15;;
56481;SDS011;42384;45.186;19.958;2024-03-23T13:24:24;10.82;;;6.03;;
56481;SDS011;42384;45.186;19.958;2024-03-23T13:26:50;11.18;;;5.88;;
56481;SDS011;42384;45.186;19.958;2024-03-23T13:29:17;9.57;;;5.15;;
56481;SDS011;42384;45.186;19.958;2024-03-23T13:34:10;7.32;;;5.18;;
56481;SDS011;42384;45.186;19.958;2024-03-23T13:36:38;8.15;;;4.10;;
56481;SDS011;42384;45.186;19.958;2024-03-23T13:39:04;8.60;;;3.65;;
56481;SDS011;42384;45.186;19.958;2024-03-23T13:41:39;9.15;;;4.45;;
56481;SDS011;42384;45.186;19.958;2024-03-23T13:44:08;13.07;;;7.20;;
56481;SDS011;42384;45.186;19.958;2024-03-23T13:46:37;9.27;;;4.63;;
56481;SDS011;42384;45.186;19.958;2024-03-23T13:49:04;11.10;;;5.07;;
56481;SDS011;42384;45.186;19.958;2024-03-23T13:51:31;9.77;;;4.50;;
56481;SDS011;42384;45.186;19.958;2024-03-23T13:53:57;6.72;;;3.15;;
56481;SDS011;42384;45.186;19.958;2024-03-23T13:56:29;8.00;;;3.50;;
56481;SDS011;42384;45.186;19.958;2024-03-23T13:58:56;5.22;;;3.45;;
56481;SDS011;42384;45.186;19.958;2024-03-23T14:01:23;5.88;;;3.00;;
56481;SDS011;42384;45.186;19.958;2024-03-23T14:03:49;5.82;;;3.22;;
56481;SDS011;42384;45.186;19.958;2024-03-23T14:06:15;6.10;;;3.13;;
56481;SDS011;42384;45.186;19.958;2024-03-23T14:08:42;7.28;;;3.33;;
56481;SDS011;42384;45.186;19.958;2024-03-23T14:11:09;7.28;;;3.63;;
56481;SDS011;42384;45.186;19.958;2024-03-23T14:13:35;9.82;;;3.58;;
56481;SDS011;42384;45.186;19.958;2024-03-23T14:16:02;7.55;;;3.45;;
56481;SDS011;42384;45.186;19.958;2024-03-23T14:18:28;5.78;;;3.30;;
56481;SDS011;42384;45.186;19.958;2024-03-23T14:20:59;6.40;;;2.90;;
56481;SDS011;42384;45.186;19.958;2024-03-23T14:23:26;6.40;;;3.30;;
56481;SDS011;42384;45.186;19.958;2024-03-23T14:25:54;4.10;;;3.05;;
56481;SDS011;42384;45.186;19.958;2024-03-23T14:30:48;6.65;;;3.70;;
56481;SDS011;42384;45.186;19.958;2024-03-23T14:33:15;7.82;;;5.70;;
56481;SDS011;42384;45.186;19.958;2024-03-23T14:35:41;7.40;;;5.13;;
56481;SDS011;42384;45.186;19.958;2024-03-23T14:38:07;8.65;;;5.18;;
56481;SDS011;42384;45.186;19.958;2024-03-23T14:40:33;8.20;;;4.75;;
56481;SDS011;42384;45.186;19.958;2024-03-23T14:43:00;8.30;;;6.13;;
56481;SDS011;42384;45.186;19.958;2024-03-23T14:45:26;8.43;;;5.70;;
56481;SDS011;42384;45.186;19.958;2024-03-23T14:47:52;12.52;;;5.05;;
56481;SDS011;42384;45.186;19.958;2024-03-23T14:50:18;7.05;;;4.60;;
56481;SDS011;42384;45.186;19.958;2024-03-23T14:52:46;10.93;;;6.78;;
56481;SDS011;42384;45.186;19.958;2024-03-23T14:55:13;8.82;;;5.68;;
56481;SDS011;42384;45.186;19.958;2024-03-23T14:57:39;7.57;;;5.10;;
56481;SDS011;42384;45.186;19.958;2024-03-23T15:00:06;7.47;;;4.30;;
56481;SDS011;42384;45.186;19.958;2024-03-23T15:02:33;9.15;;;4.15;;
56481;SDS011;42384;45.186;19.958;2024-03-23T15:05:00;5.90;;;3.80;;
56481;SDS011;42384;45.186;19.958;2024-03-23T15:07:28;5.70;;;3.95;;
56481;SDS011;42384;45.186;19.958;2024-03-23T15:09:55;8.18;;;4.40;;
56481;SDS011;42384;45.186;19.958;2024-03-23T15:12:21;7.93;;;4.00;;
56481;SDS011;42384;45.186;19.958;2024-03-23T15:14:47;7.05;;;4.07;;
56481;SDS011;42384;45.186;19.958;2024-03-23T15:17:14;7.43;;;4.07;;
56481;SDS011;42384;45.186;19.958;2024-03-23T15:19:40;5.30;;;3.58;;
56481;SDS011;42384;45.186;19.958;2024-03-23T15:22:08;6.55;;;4.32;;
56481;SDS011;42384;45.186;19.958;2024-03-23T15:24:35;7.38;;;4.45;;
56481;SDS011;42384;45.186;19.958;2024-03-23T15:27:02;9.02;;;4.10;;
56481;SDS011;42384;45.186;19.958;2024-03-23T15:29:28;8.20;;;4.20;;
56481;SDS011;42384;45.186;19.958;2024-03-23T15:31:55;6.07;;;3.95;;
56481;SDS011;42384;45.186;19.958;2024-03-23T15:34:22;9.73;;;6.13;;
56481;SDS011;42384;45.186;19.958;2024-03-23T15:36:48;13.65;;;6.03;;
56481;SDS011;42384;45.186;19.958;2024-03-23T15:39:18;126.65;;;87.93;;
56481;SDS011;42384;45.186;19.958;2024-03-23T15:41:45;271.05;;;181.82;;
56481;SDS011;42384;45.186;19.958;2024-03-23T15:44:11;76.07;;;50.90;;
56481;SDS011;42384;45.186;19.958;2024-03-23T15:46:38;186.57;;;124.90;;
56481;SDS011;42384;45.186;19.958;2024-03-23T15:49:04;131.75;;;88.25;;
56481;SDS011;42384;45.186;19.958;2024-03-23T15:51:31;67.82;;;46.08;;
56481;SDS011;42384;45.186;19.958;2024-03-23T15:54:02;63.47;;;42.83;;